Time;durP1;ratioP1;P1;durP2;ratioP2;P2;SDS_P1;SDS_P2;PMS_P1;PMS_P2;Temp;Humidity;BMP_temperature;BMP_pressure;BME280_temperature;BME280_humidity;BME280_pressure;Samples;Min_cycle;Max_cycle;Signal;HPM_P1;HPM_P2
2023/09/21 00:00:20;;;;;;;6.45;2.88;;;19.70;99.90;;;;;;5069779;28;20050;-73
2023/09/21 00:02:50;;;;;;;7.32;2.50;;;19.70;99.90;;;;;;5070413;28;20020;-73
2023/09/21 00:05:21;;;;;;;6.32;2.83;;;19.70;99.90;;;;;;5070484;28;20095;-73
2023/09/21 00:07:47;;;;;;;4.28;2.50;;;19.70;99.90;;;;;;5070336;28;20025;-73
2023/09/21 00:10:12;;;;;;;6.40;2.70;;;19.70;99.90;;;;;;5069930;28;20041;-73
2023/09/21 00:12:39;;;;;;;5.32;2.65;;;19.70;99.90;;;;;;5070239;28;20020;-73
2023/09/21 00:15:06;;;;;;;6.80;2.78;;;19.70;99.90;;;;;;5070187;28;20020;-73
2023/09/21 00:17:34;;;;;;;7.43;2.45;;;19.70;99.90;;;;;;5070351;28;20483;-73
2023/09/21 00:20:00;;;;;;;5.40;2.90;;;19.70;99.90;;;;;;5069432;28;20028;-73
2023/09/21 00:22:27;;;;;;;6.45;2.90;;;19.70;99.90;;;;;;5069134;28;20025;-73
2023/09/21 00:24:52;;;;;;;10.13;2.78;;;19.70;99.90;;;;;;5068423;28;20028;-73
2023/09/21 00:27:18;;;;;;;10.90;2.88;;;19.70;99.90;;;;;;5070301;28;20357;-73
2023/09/21 00:29:46;;;;;;;6.88;2.50;;;19.70;99.90;;;;;;5069737;28;20021;-73
2023/09/21 00:32:12;;;;;;;6.63;2.80;;;19.80;99.90;;;;;;5069915;28;20484;-73
2023/09/21 00:34:38;;;;;;;3.92;2.53;;;19.80;99.90;;;;;;5069631;28;20031;-73
2023/09/21 00:37:04;;;;;;;4.10;2.40;;;19.80;99.90;;;;;;5070128;28;20090;-73
2023/09/21 00:39:32;;;;;;;5.50;2.65;;;19.70;99.90;;;;;;5070453;28;20043;-73
2023/09/21 00:41:57;;;;;;;6.45;3.05;;;19.70;99.90;;;;;;5070381;28;20553;-73
2023/09/21 00:44:23;;;;;;;6.18;3.20;;;19.70;99.90;;;;;;5069954;28;20013;-73
2023/09/21 00:46:49;;;;;;;8.00;2.97;;;19.70;99.90;;;;;;5069596;28;20071;-73
2023/09/21 00:49:17;;;;;;;5.57;2.50;;;19.70;99.90;;;;;;5070048;28;20021;-73
2023/09/21 00:51:43;;;;;;;4.75;2.67;;;19.70;99.90;;;;;;5068629;28;20016;-73
2023/09/21 00:54:09;;;;;;;7.65;2.88;;;19.70;99.90;;;;;;5070025;28;20031;-73
2023/09/21 00:56:38;;;;;;;5.93;2.70;;;19.70;99.90;;;;;;5069489;28;20411;-73
2023/09/21 00:59:05;;;;;;;7.07;2.78;;;19.70;99.90;;;;;;5070277;28;20092;-74
2023/09/21 01:01:31;;;;;;;5.13;2.60;;;19.70;99.90;;;;;;5069592;28;20036;-75
2023/09/21 01:04:06;;;;;;;7.25;2.80;;;19.80;99.90;;;;;;5070164;28;20426;-73
2023/09/21 01:06:33;;;;;;;7.70;2.90;;;19.80;99.90;;;;;;5084595;28;20048;-73
2023/09/21 01:08:59;;;;;;;8.85;2.70;;;19.80;99.90;;;;;;5069623;28;20059;-74
2023/09/21 01:11:25;;;;;;;7.28;2.50;;;19.80;99.90;;;;;;5069036;28;20070;-73
2023/09/21 01:13:51;;;;;;;7.20;2.50;;;19.80;99.90;;;;;;5073247;28;20021;-73
2023/09/21 01:16:18;;;;;;;9.05;2.47;;;19.80;99.90;;;;;;5072551;28;20012;-73
2023/09/21 01:18:44;;;;;;;8.98;2.70;;;19.80;99.90;;;;;;5073419;28;20060;-73
2023/09/21 01:21:10;;;;;;;7.22;2.67;;;19.90;99.90;;;;;;5073435;28;20069;-73
2023/09/21 01:23:49;;;;;;;5.47;2.50;;;19.90;99.90;;;;;;5073308;28;20020;-73
2023/09/21 01:26:16;;;;;;;5.68;2.42;;;20.00;99.90;;;;;;5073471;28;20025;-73
2023/09/21 01:28:45;;;;;;;5.30;2.35;;;20.10;99.90;;;;;;5073487;28;20472;-73
2023/09/21 01:31:13;;;;;;;6.70;2.70;;;20.10;99.90;;;;;;5073607;28;20517;-73
2023/09/21 01:33:39;;;;;;;5.15;2.45;;;20.20;99.90;;;;;;5073773;28;20459;-73
2023/09/21 01:36:08;;;;;;;7.20;2.47;;;20.20;99.90;;;;;;5072805;28;20032;-73
2023/09/21 01:38:34;;;;;;;5.80;2.40;;;20.20;99.90;;;;;;5072504;28;20020;-73
2023/09/21 01:41:00;;;;;;;6.50;2.30;;;20.20;99.90;;;;;;5073031;28;20012;-73
2023/09/21 01:43:26;;;;;;;5.15;2.50;;;20.20;99.90;;;;;;5072981;28;20486;-73
2023/09/21 01:45:52;;;;;;;5.32;2.53;;;20.30;99.90;;;;;;5072555;28;20366;-73
2023/09/21 01:48:18;;;;;;;5.38;2.30;;;20.30;99.90;;;;;;5072910;28;20032;-73
2023/09/21 01:50:48;;;;;;;8.23;2.60;;;20.30;99.90;;;;;;5073207;28;20055;-73
2023/09/21 01:53:16;;;;;;;5.45;2.30;;;20.30;99.90;;;;;;5072474;28;20059;-73
2023/09/21 01:55:43;;;;;;;4.40;2.58;;;20.30;99.90;;;;;;5073037;28;20140;-74
2023/09/21 01:58:12;;;;;;;6.55;2.40;;;20.30;99.90;;;;;;5072418;28;20042;-74
2023/09/21 02:00:48;;;;;;;8.65;2.58;;;20.30;99.90;;;;;;5072839;28;20029;-75
2023/09/21 02:03:18;;;;;;;6.90;2.58;;;20.30;99.90;;;;;;5072807;28;20050;-75
2023/09/21 02:05:48;;;;;;;4.20;2.35;;;20.30;99.90;;;;;;5072537;28;20041;-74
2023/09/21 02:08:19;;;;;;;8.10;2.40;;;20.30;99.90;;;;;;5070949;28;20031;-74
2023/09/21 02:10:49;;;;;;;6.85;2.47;;;20.20;99.90;;;;;;5091369;28;20469;-74
2023/09/21 02:13:16;;;;;;;7.65;2.58;;;20.10;99.90;;;;;;5072766;28;20033;-74
2023/09/21 02:15:43;;;;;;;6.60;2.75;;;20.00;99.90;;;;;;5072178;28;20257;-74
2023/09/21 02:18:10;;;;;;;6.57;3.00;;;19.90;99.90;;;;;;5072570;28;20142;-74
2023/09/21 02:20:44;;;;;;;8.18;3.08;;;19.80;99.90;;;;;;5072328;28;20383;-74
2023/09/21 02:23:10;;;;;;;7.75;2.95;;;19.70;99.90;;;;;;5072054;28;20078;-74
2023/09/21 02:25:40;;;;;;;5.95;2.47;;;19.60;99.90;;;;;;5071673;28;20458;-74
2023/09/21 02:28:09;;;;;;;5.90;2.85;;;19.50;99.90;;;;;;5069596;28;20041;-75
2023/09/21 02:30:37;;;;;;;6.68;2.88;;;19.50;99.90;;;;;;5070682;28;20029;-75
2023/09/21 02:33:04;;;;;;;6.40;2.70;;;19.40;99.90;;;;;;5072243;28;20017;-75
2023/09/21 02:35:33;;;;;;;5.35;3.03;;;19.40;99.90;;;;;;5070090;28;20031;-74
2023/09/21 02:37:59;;;;;;;5.78;2.67;;;19.40;99.90;;;;;;5067347;28;20020;-74
2023/09/21 02:40:24;;;;;;;11.00;3.03;;;19.30;99.90;;;;;;5063562;28;20028;-74
2023/09/21 02:42:52;;;;;;;3.55;2.72;;;19.20;99.90;;;;;;5071413;28;20035;-74
2023/09/21 02:45:21;;;;;;;7.32;3.00;;;19.20;99.90;;;;;;5071533;28;20034;-74
2023/09/21 02:47:47;;;;;;;5.20;2.88;;;19.20;99.90;;;;;;5065779;28;20032;-74
2023/09/21 02:50:14;;;;;;;5.75;3.05;;;19.10;99.90;;;;;;5068932;28;20032;-74
2023/09/21 02:52:47;;;;;;;5.85;2.47;;;19.10;99.90;;;;;;5071769;28;20027;-74
2023/09/21 02:55:17;;;;;;;6.85;2.10;;;19.10;99.90;;;;;;5071117;28;20475;-74
2023/09/21 02:57:47;;;;;;;3.92;1.95;;;19.00;99.90;;;;;;5068226;28;20074;-74
2023/09/21 03:02:57;;;;;;;4.03;1.80;;;18.90;99.90;;;;;;5071024;28;20069;-75
2023/09/21 03:05:25;;;;;;;2.22;1.67;;;18.90;99.90;;;;;;5071129;28;20127;-75
2023/09/21 03:07:51;;;;;;;3.92;1.52;;;18.80;99.90;;;;;;5071000;28;20471;-75
2023/09/21 03:10:18;;;;;;;2.40;1.35;;;18.80;99.90;;;;;;5071528;28;20020;-75
2023/09/21 03:12:48;;;;;;;2.63;1.42;;;18.70;99.90;;;;;;5086444;28;20392;-75
2023/09/21 03:15:14;;;;;;;4.47;1.70;;;18.70;99.90;;;;;;5071403;28;20055;-75
2023/09/21 03:17:44;;;;;;;4.43;1.98;;;18.60;99.90;;;;;;5071080;28;20021;-75
2023/09/21 03:20:28;;;;;;;4.78;2.10;;;18.60;99.90;;;;;;5071055;28;20445;-75
2023/09/21 03:22:55;;;;;;;3.95;1.63;;;18.50;99.90;;;;;;5071238;28;20472;-75
2023/09/21 03:25:32;;;;;;;3.22;1.90;;;18.50;99.90;;;;;;5070905;28;20039;-75
2023/09/21 03:27:59;;;;;;;6.57;2.40;;;18.40;99.90;;;;;;5070510;28;20271;-75
2023/09/21 03:30:29;;;;;;;5.78;2.60;;;18.40;99.90;;;;;;5068956;28;20587;-75
2023/09/21 03:32:54;;;;;;;5.38;2.50;;;18.40;99.90;;;;;;5070938;28;20024;-75
2023/09/21 03:35:21;;;;;;;5.07;2.67;;;18.40;99.90;;;;;;5070199;28;20085;-75
2023/09/21 03:37:50;;;;;;;7.00;2.78;;;18.40;99.90;;;;;;5071223;28;20021;-75
2023/09/21 03:40:17;;;;;;;4.97;2.90;;;18.40;99.90;;;;;;5070826;28;20032;-75
2023/09/21 03:42:43;;;;;;;6.97;2.90;;;18.40;99.90;;;;;;5071488;28;20039;-75
2023/09/21 03:45:12;;;;;;;5.30;2.60;;;18.40;99.90;;;;;;5070889;28;20112;-76
2023/09/21 03:47:38;;;;;;;7.80;2.85;;;18.40;99.90;;;;;;5070360;28;20559;-75
2023/09/21 03:50:06;;;;;;;6.35;3.20;;;18.40;99.90;;;;;;5070435;28;20423;-75
2023/09/21 03:52:32;;;;;;;6.82;3.10;;;18.40;99.90;;;;;;5070927;28;20108;-75
2023/09/21 03:55:00;;;;;;;7.95;3.30;;;18.50;99.90;;;;;;5070370;28;20075;-75
2023/09/21 03:57:26;;;;;;;7.72;3.20;;;18.40;99.90;;;;;;5070517;28;20095;-75
2023/09/21 03:59:52;;;;;;;7.95;3.08;;;18.40;99.90;;;;;;5070381;28;20349;-75
2023/09/21 04:02:19;;;;;;;6.05;2.67;;;18.50;99.90;;;;;;5070700;28;20024;-75
2023/09/21 04:04:48;;;;;;;6.13;2.72;;;18.40;99.90;;;;;;5070216;28;20048;-75
2023/09/21 04:07:15;;;;;;;3.40;2.22;;;18.40;99.90;;;;;;5071735;28;20032;-75
2023/09/21 04:09:41;;;;;;;3.50;2.17;;;18.40;99.90;;;;;;5070547;28;20017;-75
2023/09/21 04:12:07;;;;;;;5.30;2.50;;;18.40;99.90;;;;;;5070577;28;20476;-75
2023/09/21 04:14:32;;;;;;;5.68;2.42;;;18.30;99.90;;;;;;5070248;28;20043;-75
2023/09/21 04:16:58;;;;;;;3.90;2.58;;;18.30;99.90;;;;;;5069242;28;20062;-75
2023/09/21 04:19:24;;;;;;;11.15;3.00;;;18.30;99.90;;;;;;5070004;28;20024;-75
2023/09/21 04:21:50;;;;;;;5.72;2.55;;;18.30;99.90;;;;;;5069925;28;20357;-75
2023/09/21 04:24:17;;;;;;;7.82;3.03;;;18.30;99.90;;;;;;5070276;28;20025;-75
2023/09/21 04:26:43;;;;;;;4.90;2.40;;;18.20;99.90;;;;;;5069909;28;20016;-75
2023/09/21 04:29:09;;;;;;;5.30;2.67;;;18.20;99.90;;;;;;5069865;28;20507;-75
2023/09/21 04:31:36;;;;;;;4.63;2.22;;;18.20;99.90;;;;;;5069743;28;20032;-74
2023/09/21 04:34:02;;;;;;;7.07;2.72;;;18.10;99.90;;;;;;5070008;28;20012;-75
2023/09/21 04:36:28;;;;;;;6.22;2.63;;;18.10;99.90;;;;;;5071859;28;20028;-75
2023/09/21 04:38:54;;;;;;;6.82;2.85;;;18.00;99.90;;;;;;5069312;28;20025;-75
2023/09/21 04:41:20;;;;;;;6.40;2.97;;;18.00;99.90;;;;;;5082694;28;20074;-75
2023/09/21 04:43:46;;;;;;;7.95;3.20;;;18.00;99.90;;;;;;5067838;28;20025;-75
2023/09/21 04:46:12;;;;;;;6.15;3.17;;;18.00;99.90;;;;;;5067060;28;20025;-75
2023/09/21 04:48:39;;;;;;;4.57;3.03;;;17.90;99.90;;;;;;5067375;28;20020;-75
2023/09/21 04:51:05;;;;;;;8.80;3.85;;;17.90;99.90;;;;;;5073478;28;20550;-75
2023/09/21 04:53:31;;;;;;;6.05;3.45;;;17.90;99.90;;;;;;5073322;28;20110;-75
2023/09/21 04:55:57;;;;;;;6.85;3.25;;;17.90;99.90;;;;;;5071840;28;20017;-75
2023/09/21 04:58:23;;;;;;;8.52;4.00;;;17.90;99.90;;;;;;5073312;28;20032;-75
2023/09/21 05:00:49;;;;;;;6.68;3.78;;;17.90;99.90;;;;;;5073871;28;20031;-75
2023/09/21 05:03:15;;;;;;;6.75;4.18;;;17.90;99.90;;;;;;5071781;28;20499;-75
2023/09/21 05:05:41;;;;;;;8.95;3.92;;;17.90;99.90;;;;;;5075609;28;20036;-75
2023/09/21 05:08:09;;;;;;;8.50;4.40;;;17.90;99.90;;;;;;5073914;28;20035;-75
2023/09/21 05:10:35;;;;;;;12.73;4.40;;;17.90;99.90;;;;;;5073316;28;20035;-74
2023/09/21 05:13:00;;;;;;;9.95;4.40;;;17.90;99.90;;;;;;5072063;28;20020;-74
2023/09/21 05:15:29;;;;;;;7.38;4.47;;;17.90;99.90;;;;;;5060374;28;20484;-74
2023/09/21 05:17:54;;;;;;;9.25;4.25;;;17.90;99.90;;;;;;5066463;28;20033;-74
2023/09/21 05:20:20;;;;;;;5.28;3.10;;;17.90;99.90;;;;;;5072218;28;20029;-75
2023/09/21 05:22:47;;;;;;;8.50;1.70;;;17.90;99.90;;;;;;5071697;28;20391;-74
2023/09/21 05:25:12;;;;;;;2.80;1.10;;;17.70;99.90;;;;;;5069501;28;20020;-74
2023/09/21 05:27:41;;;;;;;2.22;1.20;;;17.30;99.90;;;;;;5083614;28;20187;-75
2023/09/21 05:30:09;;;;;;;1.80;1.05;;;17.00;99.90;;;;;;5070269;28;20029;-75
2023/09/21 05:32:34;;;;;;;3.72;1.10;;;16.70;99.90;;;;;;5068195;28;20095;-75
2023/09/21 05:35:00;;;;;;;2.45;1.10;;;16.60;99.90;;;;;;5070615;28;20021;-75
2023/09/21 05:37:26;;;;;;;3.78;1.10;;;16.50;99.90;;;;;;5071003;28;20025;-75
2023/09/21 05:39:51;;;;;;;3.53;0.80;;;16.40;99.90;;;;;;5073132;28;20734;-74
2023/09/21 05:42:17;;;;;;;1.40;1.05;;;16.40;99.90;;;;;;5068985;28;20031;-74
2023/09/21 05:44:44;;;;;;;4.30;1.17;;;16.30;99.90;;;;;;5072880;28;20059;-74
2023/09/21 05:47:10;;;;;;;5.40;1.38;;;16.30;99.90;;;;;;5067199;28;20151;-74
2023/09/21 05:49:37;;;;;;;3.75;1.20;;;16.30;99.90;;;;;;5070922;28;20036;-74
2023/09/21 05:52:08;;;;;;;2.38;1.10;;;16.30;99.90;;;;;;5072283;28;20009;-74
2023/09/21 05:54:35;;;;;;;3.33;1.13;;;16.30;99.90;;;;;;5073297;28;20025;-74
2023/09/21 05:57:03;;;;;;;4.68;1.08;;;16.30;99.90;;;;;;5069286;28;20369;-74
2023/09/21 05:59:31;;;;;;;3.95;1.40;;;16.30;99.90;;;;;;5071468;28;20055;-75
2023/09/21 06:01:57;;;;;;;2.92;1.13;;;16.30;99.90;;;;;;5058230;28;20107;-74
2023/09/21 06:04:24;;;;;;;3.90;1.17;;;16.30;99.90;;;;;;5068652;28;20049;-74
2023/09/21 06:06:51;;;;;;;3.85;1.17;;;16.30;99.90;;;;;;5072447;28;20019;-74
2023/09/21 06:09:20;;;;;;;2.75;1.30;;;16.30;99.90;;;;;;5072397;28;20078;-74
2023/09/21 06:11:49;;;;;;;4.80;1.60;;;16.40;99.90;;;;;;5070647;28;20078;-74
2023/09/21 06:14:17;;;;;;;3.67;1.23;;;16.40;99.90;;;;;;5064715;28;20059;-74
2023/09/21 06:16:46;;;;;;;3.40;1.35;;;16.40;99.90;;;;;;5068647;28;20023;-74
2023/09/21 06:19:12;;;;;;;2.97;1.35;;;16.40;99.90;;;;;;5072567;28;20052;-74
2023/09/21 06:21:39;;;;;;;4.60;1.70;;;16.40;99.90;;;;;;5072433;28;20070;-74
2023/09/21 06:24:06;;;;;;;3.95;1.40;;;16.40;99.90;;;;;;5072423;28;20071;-74
2023/09/21 06:26:32;;;;;;;3.03;1.42;;;16.40;99.90;;;;;;5070631;28;20021;-74
2023/09/21 06:28:59;;;;;;;4.60;1.63;;;16.40;99.90;;;;;;5069058;28;20025;-74
2023/09/21 06:31:24;;;;;;;2.95;1.25;;;16.30;99.90;;;;;;5070482;28;20146;-74
2023/09/21 06:33:51;;;;;;;4.05;1.42;;;16.30;99.90;;;;;;5072412;28;20025;-74
2023/09/21 06:36:20;;;;;;;3.50;1.50;;;16.30;99.90;;;;;;5072077;28;20036;-74
2023/09/21 06:38:47;;;;;;;4.00;1.73;;;16.30;99.90;;;;;;5072061;28;20069;-74
2023/09/21 06:41:13;;;;;;;2.30;1.40;;;16.40;99.90;;;;;;5071689;28;20070;-74
2023/09/21 06:43:42;;;;;;;3.85;1.58;;;16.40;99.90;;;;;;5071750;28;20035;-74
2023/09/21 06:46:08;;;;;;;5.45;1.70;;;16.50;99.90;;;;;;5071684;28;20490;-74
2023/09/21 06:48:34;;;;;;;5.75;1.92;;;16.50;99.90;;;;;;5070697;28;20016;-74
2023/09/21 06:51:00;;;;;;;3.75;1.67;;;16.50;99.90;;;;;;5070674;28;20392;-75
2023/09/21 06:53:28;;;;;;;5.13;1.70;;;16.50;99.90;;;;;;5070274;28;20514;-74
2023/09/21 06:55:55;;;;;;;5.72;2.08;;;16.50;99.90;;;;;;5067653;28;20024;-74
2023/09/21 06:58:21;;;;;;;4.75;2.00;;;16.50;99.90;;;;;;5071361;28;20364;-74
2023/09/21 07:00:47;;;;;;;4.57;2.20;;;16.50;99.90;;;;;;5070034;28;20031;-74
2023/09/21 07:03:12;;;;;;;3.92;1.88;;;16.50;99.90;;;;;;5066537;28;20020;-74
2023/09/21 07:05:40;;;;;;;6.35;2.20;;;16.50;99.90;;;;;;5070786;28;20063;-74
2023/09/21 07:08:06;;;;;;;3.65;1.63;;;16.50;99.90;;;;;;5070411;28;20025;-74
2023/09/21 07:10:32;;;;;;;5.93;1.88;;;16.50;99.90;;;;;;5069090;28;20042;-74
2023/09/21 07:12:58;;;;;;;5.28;1.85;;;16.50;99.90;;;;;;5070668;28;20024;-74
2023/09/21 07:15:24;;;;;;;4.68;2.00;;;16.50;99.90;;;;;;5070276;28;20017;-74
2023/09/21 07:17:50;;;;;;;5.63;1.80;;;16.60;99.90;;;;;;5069856;28;20048;-74
2023/09/21 07:20:23;;;;;;;5.63;1.67;;;16.60;99.90;;;;;;5065790;28;20051;-74
2023/09/21 07:22:49;;;;;;;7.82;1.88;;;16.60;99.90;;;;;;5070397;28;20019;-74
2023/09/21 07:25:15;;;;;;;6.13;2.08;;;16.60;99.90;;;;;;5071033;28;20082;-74
2023/09/21 07:27:42;;;;;;;4.82;2.03;;;16.60;99.90;;;;;;5068909;28;20033;-74
2023/09/21 07:30:09;;;;;;;7.53;2.35;;;16.60;99.90;;;;;;5069428;28;20032;-75
2023/09/21 07:32:35;;;;;;;7.57;2.47;;;16.60;99.90;;;;;;5070010;28;20024;-73
2023/09/21 07:35:06;;;;;;;6.82;2.45;;;16.60;99.90;;;;;;5068972;28;20224;-73
2023/09/21 07:37:32;;;;;;;6.85;2.28;;;16.70;99.90;;;;;;5069973;28;20388;-73
2023/09/21 07:39:57;;;;;;;6.57;2.33;;;16.70;99.90;;;;;;5070531;28;20032;-73
2023/09/21 07:42:23;;;;;;;9.20;2.58;;;16.80;99.90;;;;;;5070721;28;20383;-73
2023/09/21 07:44:49;;;;;;;5.55;1.92;;;16.80;99.90;;;;;;5070643;28;20480;-73
2023/09/21 07:47:16;;;;;;;4.05;1.85;;;16.80;99.90;;;;;;5071113;28;20040;-73
2023/09/21 07:49:44;;;;;;;7.72;2.35;;;16.90;99.90;;;;;;5070375;28;20054;-74
2023/09/21 07:52:10;;;;;;;4.80;1.75;;;16.90;99.90;;;;;;5069419;28;20036;-74
2023/09/21 07:54:37;;;;;;;5.07;1.63;;;16.90;99.90;;;;;;5070783;28;20020;-73
2023/09/21 07:57:04;;;;;;;10.52;1.92;;;17.00;99.90;;;;;;5069531;28;20030;-73
2023/09/21 07:59:31;;;;;;;6.78;1.77;;;17.00;99.90;;;;;;5067227;28;20047;-73
2023/09/21 08:01:57;;;;;;;3.58;1.70;;;17.00;99.90;;;;;;5075009;28;20078;-73
2023/09/21 08:04:22;;;;;;;5.85;1.70;;;17.00;99.90;;;;;;5073756;28;20041;-73
2023/09/21 08:06:49;;;;;;;8.70;2.25;;;17.00;99.90;;;;;;5070975;28;20036;-73
2023/09/21 08:09:18;;;;;;;4.38;2.00;;;17.00;99.90;;;;;;5069803;28;20098;-74
2023/09/21 08:11:44;;;;;;;5.07;1.80;;;17.00;99.90;;;;;;5070692;28;20056;-74
2023/09/21 08:14:10;;;;;;;6.78;1.60;;;17.00;99.90;;;;;;5068973;28;20052;-74
2023/09/21 08:16:37;;;;;;;9.75;2.17;;;17.00;99.90;;;;;;5068176;28;20021;-74
2023/09/21 08:19:03;;;;;;;8.95;1.90;;;17.00;99.90;;;;;;5070597;28;20372;-73
2023/09/21 08:21:31;;;;;;;10.32;2.08;;;17.10;99.90;;;;;;5067520;28;20015;-74
2023/09/21 08:23:56;;;;;;;7.18;1.80;;;17.10;99.90;;;;;;5069197;28;20031;-74
2023/09/21 08:26:22;;;;;;;4.90;1.60;;;17.20;99.90;;;;;;5068821;28;20119;-74
2023/09/21 08:28:48;;;;;;;6.53;1.90;;;17.20;99.90;;;;;;5060580;28;20555;-74
2023/09/21 08:31:13;;;;;;;6.47;1.60;;;17.30;99.90;;;;;;5085755;28;20375;-74
2023/09/21 08:33:39;;;;;;;5.70;1.80;;;17.30;99.90;;;;;;5069318;28;20016;-74
2023/09/21 08:36:05;;;;;;;5.20;2.00;;;17.30;99.90;;;;;;5069949;28;20025;-74
2023/09/21 08:38:31;;;;;;;8.18;1.92;;;17.30;99.90;;;;;;5070522;28;20025;-74
2023/09/21 08:40:59;;;;;;;4.80;1.80;;;17.30;99.90;;;;;;5069745;28;20069;-74
2023/09/21 08:43:25;;;;;;;6.28;2.05;;;17.30;99.90;;;;;;5069650;28;20095;-74
2023/09/21 08:45:51;;;;;;;6.95;1.77;;;17.20;99.90;;;;;;5069745;28;20038;-74
2023/09/21 08:48:22;;;;;;;7.68;1.92;;;17.30;99.90;;;;;;5069654;28;20013;-74
2023/09/21 08:50:51;;;;;;;7.53;1.80;;;17.30;99.90;;;;;;5069927;28;20415;-74
2023/09/21 08:53:22;;;;;;;4.95;1.60;;;17.30;99.90;;;;;;5068994;28;20356;-73
2023/09/21 08:55:49;;;;;;;5.80;1.77;;;17.30;99.90;;;;;;5066724;28;20021;-73
2023/09/21 08:58:27;;;;;;;6.25;1.88;;;17.30;99.90;;;;;;5069029;28;20265;-73
2023/09/21 09:00:54;;;;;;;6.25;2.10;;;17.30;99.90;;;;;;5070269;28;20024;-73
2023/09/21 09:03:28;;;;;;;7.15;2.17;;;17.30;99.90;;;;;;5069933;28;20078;-73
2023/09/21 09:06:00;;;;;;;6.03;2.28;;;17.30;99.90;;;;;;5069434;28;20470;-73
2023/09/21 09:08:28;;;;;;;7.82;2.60;;;17.30;99.90;;;;;;5069513;28;20064;-74
2023/09/21 09:10:53;;;;;;;5.10;2.50;;;17.20;99.90;;;;;;5069717;28;20025;-74
2023/09/21 09:13:32;;;;;;;8.70;2.80;;;17.20;99.90;;;;;;5069884;28;20029;-74
2023/09/21 09:16:01;;;;;;;8.45;2.22;;;17.20;99.90;;;;;;5080438;28;20394;-74
2023/09/21 09:18:30;;;;;;;4.45;2.20;;;17.20;99.90;;;;;;5069087;28;20032;-73
2023/09/21 09:20:56;;;;;;;8.18;2.63;;;17.10;99.90;;;;;;5068542;28;20471;-74
2023/09/21 09:23:21;;;;;;;8.00;2.35;;;17.10;99.90;;;;;;5083217;28;20027;-74
2023/09/21 09:25:49;;;;;;;6.10;2.40;;;17.10;99.90;;;;;;5069573;28;20020;-73
2023/09/21 09:28:16;;;;;;;5.43;2.13;;;17.20;99.90;;;;;;5069238;28;20052;-73
2023/09/21 09:30:45;;;;;;;5.72;2.40;;;17.20;99.90;;;;;;5069451;28;20056;-73
2023/09/21 09:33:12;;;;;;;7.30;2.30;;;17.10;99.90;;;;;;5069505;28;20062;-73
2023/09/21 09:35:41;;;;;;;7.68;2.30;;;17.10;99.90;;;;;;5072904;28;20013;-74
2023/09/21 09:38:10;;;;;;;5.22;2.47;;;17.20;99.90;;;;;;5072884;28;20067;-74
2023/09/21 09:40:37;;;;;;;6.05;2.60;;;17.20;99.90;;;;;;5072824;28;20069;-74
2023/09/21 09:43:07;;;;;;;6.82;2.45;;;17.10;99.90;;;;;;5072787;28;20055;-74
2023/09/21 09:45:37;;;;;;;6.50;2.75;;;17.10;99.90;;;;;;5068653;28;20020;-75
2023/09/21 09:48:11;;;;;;;5.75;2.60;;;17.00;99.90;;;;;;5071401;28;20394;-74
2023/09/21 09:50:41;;;;;;;7.50;2.00;;;17.00;99.90;;;;;;5072880;28;20119;-74
2023/09/21 09:53:11;;;;;;;7.05;2.25;;;17.00;99.90;;;;;;5072139;28;20107;-74
2023/09/21 09:55:42;;;;;;;5.65;2.53;;;17.00;99.90;;;;;;5065121;28;20017;-74
2023/09/21 09:58:09;;;;;;;8.82;2.78;;;17.00;99.90;;;;;;5072427;28;20031;-74
2023/09/21 10:00:35;;;;;;;6.07;2.55;;;17.00;99.90;;;;;;5059803;28;20020;-74
2023/09/21 10:03:03;;;;;;;7.28;2.63;;;17.10;99.90;;;;;;5063996;28;20051;-74
2023/09/21 10:05:30;;;;;;;6.03;2.42;;;17.10;99.90;;;;;;5067299;28;20539;-74
2023/09/21 10:07:59;;;;;;;8.25;2.80;;;17.10;99.90;;;;;;5072929;28;20482;-74
2023/09/21 10:10:30;;;;;;;4.45;2.50;;;17.10;99.90;;;;;;5072278;28;20024;-74
2023/09/21 10:12:57;;;;;;;5.68;2.40;;;17.10;99.90;;;;;;5072424;28;20020;-74
2023/09/21 10:15:24;;;;;;;4.57;2.30;;;17.10;99.90;;;;;;5071568;28;20051;-74
2023/09/21 10:17:54;;;;;;;7.03;2.80;;;17.00;99.90;;;;;;5071941;28;20062;-74
2023/09/21 10:20:32;;;;;;;8.27;2.88;;;17.00;99.90;;;;;;5072103;28;20029;-74
2023/09/21 10:23:04;;;;;;;5.05;2.55;;;17.00;99.90;;;;;;5072464;28;20017;-74
2023/09/21 10:25:46;;;;;;;6.28;2.40;;;17.00;99.90;;;;;;5072123;28;20028;-74
2023/09/21 10:28:29;;;;;;;7.47;2.30;;;17.00;99.90;;;;;;5072041;28;20016;-74
2023/09/21 10:31:11;;;;;;;6.38;2.30;;;17.00;99.90;;;;;;5087861;28;20505;-74
2023/09/21 10:33:48;;;;;;;4.93;2.60;;;17.00;99.90;;;;;;5071672;28;20028;-73
2023/09/21 10:36:26;;;;;;;5.65;2.60;;;17.00;99.90;;;;;;5071556;28;20396;-74
2023/09/21 10:39:10;;;;;;;4.90;2.40;;;17.10;99.90;;;;;;5070493;28;20075;-74
2023/09/21 10:41:42;;;;;;;6.20;2.42;;;17.10;99.90;;;;;;5067176;28;20483;-73
2023/09/21 10:44:09;;;;;;;5.30;2.40;;;17.10;99.90;;;;;;5064415;28;20497;-73
2023/09/21 10:46:39;;;;;;;7.65;2.70;;;17.20;99.90;;;;;;5070396;28;20104;-74
2023/09/21 10:49:08;;;;;;;11.15;3.15;;;17.10;99.90;;;;;;5073112;28;20025;-73
2023/09/21 10:51:39;;;;;;;8.55;3.05;;;17.20;99.90;;;;;;5074418;28;20432;-74
2023/09/21 10:54:10;;;;;;;4.32;2.25;;;17.20;99.90;;;;;;5073801;28;20024;-73
2023/09/21 10:56:41;;;;;;;3.58;1.88;;;17.20;99.90;;;;;;5072418;28;20032;-74
2023/09/21 10:59:08;;;;;;;4.68;1.70;;;17.20;99.90;;;;;;5065096;28;20115;-73
2023/09/21 11:01:35;;;;;;;3.70;1.65;;;17.20;99.90;;;;;;5072162;28;20021;-73
2023/09/21 11:04:02;;;;;;;2.60;1.45;;;17.20;99.90;;;;;;5071379;28;20541;-74
2023/09/21 11:06:29;;;;;;;4.35;1.90;;;17.20;99.90;;;;;;5071987;28;20016;-74
2023/09/21 11:08:55;;;;;;;5.15;1.50;;;17.30;99.90;;;;;;5071758;28;20060;-74
2023/09/21 11:11:22;;;;;;;2.88;1.70;;;17.30;99.90;;;;;;5067686;28;20403;-74
2023/09/21 11:13:51;;;;;;;4.22;2.20;;;17.20;99.90;;;;;;5071543;28;20029;-74
2023/09/21 11:16:18;;;;;;;3.88;2.30;;;17.30;99.90;;;;;;5071143;28;20048;-74
2023/09/21 11:18:44;;;;;;;4.80;2.30;;;17.30;99.90;;;;;;5070644;28;20024;-74
2023/09/21 11:21:11;;;;;;;4.75;2.05;;;17.30;99.90;;;;;;5071250;28;20039;-74
2023/09/21 11:23:40;;;;;;;3.22;2.00;;;17.20;99.90;;;;;;5071513;28;20097;-74
2023/09/21 11:26:10;;;;;;;3.63;2.00;;;17.20;99.90;;;;;;5070965;28;20217;-74
2023/09/21 11:28:37;;;;;;;3.45;1.80;;;17.20;99.90;;;;;;5071113;28;20024;-74
2023/09/21 11:31:05;;;;;;;2.92;1.80;;;17.20;99.90;;;;;;5071666;28;20085;-74
2023/09/21 11:33:34;;;;;;;2.75;1.70;;;17.20;99.90;;;;;;5071477;28;20047;-74
2023/09/21 11:36:01;;;;;;;4.32;1.90;;;17.20;99.90;;;;;;5071560;28;20044;-74
2023/09/21 11:38:29;;;;;;;3.58;1.70;;;17.20;99.90;;;;;;5070741;28;20020;-74
2023/09/21 11:40:54;;;;;;;2.92;1.30;;;17.30;99.90;;;;;;5071321;28;20024;-75
2023/09/21 11:43:22;;;;;;;1.42;1.10;;;17.30;99.90;;;;;;5070586;28;20031;-74
2023/09/21 11:45:47;;;;;;;1.30;1.10;;;17.30;99.90;;;;;;5071662;28;20024;-74
2023/09/21 11:48:13;;;;;;;0.93;0.90;;;17.30;99.90;;;;;;5071163;28;20498;-74
2023/09/21 11:50:44;;;;;;;3.47;1.15;;;17.30;99.90;;;;;;5070350;28;20031;-74
2023/09/21 11:53:09;;;;;;;1.55;1.10;;;17.30;99.90;;;;;;5071715;28;20032;-74
2023/09/21 11:55:40;;;;;;;1.63;1.20;;;17.40;99.90;;;;;;5071109;28;20104;-74
2023/09/21 11:58:10;;;;;;;1.65;1.10;;;17.40;99.90;;;;;;5069334;28;20040;-74
2023/09/21 12:00:51;;;;;;;1.48;1.15;;;17.40;99.90;;;;;;5069213;28;20027;-74
2023/09/21 12:03:20;;;;;;;2.72;1.35;;;17.40;99.90;;;;;;5070922;28;20038;-74
2023/09/21 12:05:45;;;;;;;1.95;1.02;;;17.40;99.90;;;;;;5079780;28;20087;-74
2023/09/21 12:08:15;;;;;;;2.50;0.90;;;17.40;99.90;;;;;;5080927;28;20570;-75
2023/09/21 12:10:47;;;;;;;2.92;0.90;;;17.40;99.90;;;;;;5069444;28;20578;-75
2023/09/21 12:13:16;;;;;;;2.28;0.98;;;17.40;99.90;;;;;;5062476;28;20028;-74
2023/09/21 12:15:42;;;;;;;1.70;0.90;;;17.40;99.90;;;;;;5070463;28;20066;-74
2023/09/21 12:18:10;;;;;;;1.80;0.85;;;17.40;99.90;;;;;;5070518;28;20453;-75
2023/09/21 12:20:36;;;;;;;2.17;0.98;;;17.50;99.90;;;;;;5070616;28;20681;-74
2023/09/21 12:23:05;;;;;;;1.45;1.00;;;17.50;99.90;;;;;;5070071;28;20056;-74
2023/09/21 12:25:33;;;;;;;1.38;0.90;;;17.50;99.90;;;;;;5071300;28;20108;-73
2023/09/21 12:27:59;;;;;;;1.38;1.00;;;17.60;99.90;;;;;;5070362;28;20029;-74
2023/09/21 12:30:25;;;;;;;2.05;0.80;;;17.60;99.90;;;;;;5068389;28;20059;-74
2023/09/21 12:32:50;;;;;;;1.02;0.90;;;17.70;99.90;;;;;;5068726;28;20515;-73
2023/09/21 12:35:21;;;;;;;1.55;0.80;;;17.70;99.90;;;;;;5070259;28;20025;-73
2023/09/21 12:37:46;;;;;;;1.10;1.00;;;17.80;99.90;;;;;;5070477;28;20486;-79
2023/09/21 12:40:14;;;;;;;1.33;1.05;;;17.80;99.90;;;;;;5070384;28;20075;-73
2023/09/21 12:42:41;;;;;;;0.80;0.73;;;17.80;99.90;;;;;;5069475;28;20277;-73
2023/09/21 12:45:08;;;;;;;1.38;1.02;;;17.70;99.90;;;;;;5085530;28;20480;-73
2023/09/21 12:47:34;;;;;;;1.35;0.88;;;17.70;99.90;;;;;;5069415;28;20054;-73
2023/09/21 12:50:00;;;;;;;0.95;0.85;;;17.70;99.90;;;;;;5070542;28;20483;-73